Currently 69°F in Temecula, California, USA
69°F
69°F / 59°F
7 mph SW
0.00"
Sunday, May 20, 2018 4:00 PM PDT

Temecula, California Weather Summary
Last 36 Hours

Temperature Winds Hourly Humidity Dewpoint
Time Report Norm Report Norm Max Gusts Precip. Rpt. Norm Rpt. Norm Pressure
1Sun 04:00 PM  69.4°F  75°F  7 mph SW  10 mph  19 mph  0.00"  68%  50%  58°F  55°F  29.91"
2Sun 03:49 PM  69.5°F  75°F  10 mph SW  10 mph  18 mph  ----  68%  50%  58°F  55°F  29.91"
Sun 03:00 PM  67.3°F  76°F  12 mph SW  10 mph  20 mph  0.00"  72%  50%  58°F  55°F  29.95"
Sun 02:00 PM  66.9°F  76°F  10 mph SW  10 mph  19 mph  0.00"  73%  50%  58°F  55°F  29.95"
Sun 01:00 PM  65.1°F  75°F  7 mph SW  8 mph  13 mph  0.00"  78%  52%  58°F  55°F  29.97"
Sun 12:00 PM  62.2°F  73°F  7 mph W  7 mph  16 mph  0.00"  84%  55%  57°F  55°F  29.99"
Sun 11:00 AM  62.8°F  70°F  5 mph SW  5 mph  10 mph  0.00"  80%  62%  56°F  55°F  29.99"
Sun 10:00 AM  60.9°F  65°F  calm  4 mph  none  0.00"  87%  71%  57°F  55°F  30.01"
Sun 09:00 AM  60.1°F  61°F  calm  3 mph  4 mph  0.00"  89%  80%  57°F  55°F  30.02"
Sun 08:00 AM  59.3°F  58°F  1 mph SW  2 mph  5 mph  0.00"  90%  88%  56°F  54°F  30.01"
Sun 07:00 AM  58.8°F  56°F  calm  1 mph  7 mph  0.00"  91%  91%  56°F  53°F  30.00"
3Sun 06:49 AM  58.7°F  55°F  3 mph S  1 mph  6 mph  ----  91%  92%  56°F  53°F  30.00"
Sun 06:00 AM  59.0°F  55°F  4 mph S  1 mph  7 mph  0.00"  92%  92%  56°F  53°F  29.98"
Sun 05:00 AM  59.2°F  55°F  2 mph S  1 mph  4 mph  0.00"  90%  91%  56°F  53°F  29.97"
Sun 04:00 AM  59.3°F  56°F  calm  2 mph  none  0.00"  90%  90%  56°F  53°F  29.96"
Sun 03:00 AM  59.5°F  56°F  calm  1 mph  5 mph  0.00"  90%  90%  56°F  53°F  29.96"
Sun 02:00 AM  59.4°F  57°F  calm  2 mph  5 mph  0.00"  90%  89%  56°F  54°F  29.96"
Sun 01:00 AM  59.5°F  58°F  calm  2 mph  none  0.00"  90%  88%  57°F  54°F  29.96"
Sun 12:00 AM  59.4°F  58°F  calm  2 mph  6 mph  0.00"  91%  86%  57°F  54°F  29.98"
Sat 11:00 PM  59.5°F  59°F  3 mph SW  2 mph  8 mph  0.00"  90%  85%  56°F  54°F  29.98"
Sat 10:00 PM  59.5°F  60°F  4 mph S  3 mph  7 mph  0.00"  89%  82%  56°F  54°F  29.98"
Sat 09:00 PM  59.5°F  62°F  2 mph SW  4 mph  12 mph  0.00"  88%  78%  56°F  55°F  29.97"
Sat 08:00 PM  61.1°F  64°F  6 mph S  5 mph  10 mph  0.00"  85%  73%  56°F  55°F  29.95"
Sat 07:00 PM  65.0°F  68°F  5 mph SW  7 mph  16 mph  0.00"  76%  65%  57°F  55°F  29.91"
Sat 06:00 PM  68.5°F  71°F  6 mph SW  9 mph  17 mph  0.00"  68%  57%  57°F  55°F  29.88"
Sat 05:00 PM  72.0°F  74°F  8 mph SW  10 mph  16 mph  0.00"  62%  52%  58°F  55°F  29.88"
Sat 04:00 PM  73.7°F  76°F  7 mph SW  10 mph  12 mph  0.00"  58%  50%  57°F  55°F  29.90"
Sat 03:00 PM  73.4°F  76°F  5 mph W  10 mph  13 mph  0.00"  58%  49%  57°F  55°F  29.92"
Sat 02:00 PM  70.1°F  76°F  8 mph SW  10 mph  13 mph  0.00"  63%  49%  57°F  55°F  29.95"
Sat 01:00 PM  65.0°F  75°F  9 mph S  8 mph  10 mph  0.00"  73%  51%  56°F  55°F  29.97"
Sat 12:00 PM  61.3°F  73°F  2 mph W  7 mph  10 mph  0.00"  83%  54%  56°F  55°F  29.99"
Sat 11:00 AM  61.0°F  70°F  2 mph NW  5 mph  8 mph  0.00"  82%  61%  55°F  55°F  30.00"
Sat 10:00 AM  58.9°F  66°F  calm  4 mph  5 mph  0.00"  87%  70%  55°F  55°F  30.00"
Sat 09:00 AM  58.5°F  61°F  calm  3 mph  none  0.00"  88%  80%  55°F  55°F  30.01"
Sat 08:00 AM  57.7°F  58°F  calm  2 mph  2 mph  0.00"  90%  87%  55°F  54°F  30.00"
Sat 07:00 AM  56.9°F  56°F  calm  1 mph  6 mph  0.00"  92%  91%  54°F  53°F  29.99"
Sat 06:00 AM  56.8°F  55°F  2 mph S  1 mph  8 mph  0.00"  93%  91%  55°F  52°F  29.98"
Sat 05:00 AM  56.9°F  55°F  calm  1 mph  4 mph  0.00"  91%  90%  54°F  53°F  29.97"

  1. Current weather data. No green row appears if the current weather data is also the high or low for the current day.
  2. High temperature for the current day.
  3. Low temperature for the current day.

The Temecula weather pages are a service of WeatherCurrents. Temecula, California is located in the Temecula Valley, in southwestern Riverside County, along the Interstate 15 highway. The Temecula Valley's rolling hills are home to the Temecula wine country, vineyards, golf courses, a casino resort, and Old Town Temecula.
Copyright ©Sun May 20 16:00:51 PDT 2018  WeatherCurrents. All rights reserved. - Submit questions and comments - Privacy Policy

This page automatically refreshes every 10 minutes.